sensor_id;sensor_type;location;lat;lon;timestamp;temperature;humidity
78884;SHT31;68262;51.968;5.672;2023-10-13T10:36:00;22.7;69.6
78884;SHT31;68262;51.968;5.672;2023-10-13T10:38:30;22.6;69.1
78884;SHT31;68262;51.968;5.672;2023-10-13T10:41:06;22.6;69.2
78884;SHT31;68262;51.968;5.672;2023-10-13T10:43:41;22.5;69.8
78884;SHT31;68262;51.968;5.672;2023-10-13T10:46:15;22.5;69.4
78884;SHT31;68262;51.968;5.672;2023-10-13T10:48:45;22.5;69.2
78884;SHT31;68262;51.968;5.672;2023-10-13T10:51:15;22.5;68.8
78884;SHT31;68262;51.968;5.672;2023-10-13T10:53:50;22.4;68.5
78884;SHT31;68262;51.968;5.672;2023-10-13T10:56:24;22.4;68.6
78884;SHT31;68262;51.968;5.672;2023-10-13T10:58:59;22.4;68.9
78884;SHT31;68262;51.968;5.672;2023-10-13T11:01:30;22.4;68.7
78884;SHT31;68262;51.968;5.672;2023-10-13T11:04:07;22.4;69.1
78884;SHT31;68262;51.968;5.672;2023-10-13T11:06:51;22.4;69.2
78884;SHT31;68262;51.968;5.672;2023-10-13T11:09:26;22.4;68.3
78884;SHT31;68262;51.968;5.672;2023-10-13T11:12:12;22.4;68.1
78884;SHT31;68262;51.968;5.672;2023-10-13T11:15:04;22.4;68.1
78884;SHT31;68262;51.968;5.672;2023-10-13T11:17:41;22.4;66.9
78884;SHT31;68262;51.968;5.672;2023-10-13T11:20:18;22.5;66.6
78884;SHT31;68262;51.968;5.672;2023-10-13T11:22:53;22.5;66.7
78884;SHT31;68262;51.968;5.672;2023-10-13T11:25:26;22.5;65.6
78884;SHT31;68262;51.968;5.672;2023-10-13T11:28:12;22.5;65.3
78884;SHT31;68262;51.968;5.672;2023-10-13T11:30:54;22.5;65.0
78884;SHT31;68262;51.968;5.672;2023-10-13T11:33:26;22.5;64.3
78884;SHT31;68262;51.968;5.672;2023-10-13T11:35:57;22.5;63.9
78884;SHT31;68262;51.968;5.672;2023-10-13T11:38:32;22.5;63.8
78884;SHT31;68262;51.968;5.672;2023-10-13T11:41:17;22.5;63.3
78884;SHT31;68262;51.968;5.672;2023-10-13T11:43:50;22.5;63.7
78884;SHT31;68262;51.968;5.672;2023-10-13T11:46:49;22.6;63.6
78884;SHT31;68262;51.968;5.672;2023-10-13T11:49:29;22.7;62.4
78884;SHT31;68262;51.968;5.672;2023-10-13T11:52:05;22.8;62.0
78884;SHT31;68262;51.968;5.672;2023-10-13T11:54:47;22.8;62.6
78884;SHT31;68262;51.968;5.672;2023-10-13T11:57:17;22.8;62.0
78884;SHT31;68262;51.968;5.672;2023-10-13T11:59:47;22.8;62.3
78884;SHT31;68262;51.968;5.672;2023-10-13T12:02:23;22.8;63.5
78884;SHT31;68262;51.968;5.672;2023-10-13T12:05:10;22.9;63.2
78884;SHT31;68262;51.968;5.672;2023-10-13T12:07:44;22.9;63.8
78884;SHT31;68262;51.968;5.672;2023-10-13T12:10:20;22.9;63.3
78884;SHT31;68262;51.968;5.672;2023-10-13T12:13:13;22.9;63.3
78884;SHT31;68262;51.968;5.672;2023-10-13T12:15:44;22.9;63.2
78884;SHT31;68262;51.968;5.672;2023-10-13T12:18:24;22.9;63.1
78884;SHT31;68262;51.968;5.672;2023-10-13T12:20:55;22.9;62.5
78884;SHT31;68262;51.968;5.672;2023-10-13T12:23:24;22.9;62.5
78884;SHT31;68262;51.968;5.672;2023-10-13T12:25:59;22.9;63.1
78884;SHT31;68262;51.968;5.672;2023-10-13T12:28:35;22.9;62.8
78884;SHT31;68262;51.968;5.672;2023-10-13T12:31:10;22.9;63.1
78884;SHT31;68262;51.968;5.672;2023-10-13T12:33:40;22.9;63.3
78884;SHT31;68262;51.968;5.672;2023-10-13T12:36:10;23.0;62.8
78884;SHT31;68262;51.968;5.672;2023-10-13T12:38:45;23.0;63.3
78884;SHT31;68262;51.968;5.672;2023-10-13T12:43:20;23.0;63.0
78884;SHT31;68262;51.968;5.672;2023-10-13T12:46:06;23.0;63.3
78884;SHT31;68262;51.968;5.672;2023-10-13T12:48:52;23.0;63.7
78884;SHT31;68262;51.968;5.672;2023-10-13T12:51:32;23.0;62.6
78884;SHT31;68262;51.968;5.672;2023-10-13T12:54:14;23.0;62.9
78884;SHT31;68262;51.968;5.672;2023-10-13T12:56:49;23.1;62.2
78884;SHT31;68262;51.968;5.672;2023-10-13T12:59:24;23.1;61.9
78884;SHT31;68262;51.968;5.672;2023-10-13T13:01:58;23.1;61.3
78884;SHT31;68262;51.968;5.672;2023-10-13T13:04:34;23.1;61.6
78884;SHT31;68262;51.968;5.672;2023-10-13T13:07:05;23.1;61.2
78884;SHT31;68262;51.968;5.672;2023-10-13T13:09:40;23.1;61.6
78884;SHT31;68262;51.968;5.672;2023-10-13T13:12:09;23.1;61.7
78884;SHT31;68262;51.968;5.672;2023-10-13T13:14:40;23.1;61.3
78884;SHT31;68262;51.968;5.672;2023-10-13T13:17:14;23.1;61.5
78884;SHT31;68262;51.968;5.672;2023-10-13T13:19:43;23.1;61.2
78884;SHT31;68262;51.968;5.672;2023-10-13T13:22:13;23.1;61.5
78884;SHT31;68262;51.968;5.672;2023-10-13T13:24:44;23.1;61.1
78884;SHT31;68262;51.968;5.672;2023-10-13T13:27:16;23.1;61.2
78884;SHT31;68262;51.968;5.672;2023-10-13T13:29:47;23.1;60.7
78884;SHT31;68262;51.968;5.672;2023-10-13T13:32:16;23.1;61.1
78884;SHT31;68262;51.968;5.672;2023-10-13T13:34:51;23.1;61.9
78884;SHT31;68262;51.968;5.672;2023-10-13T13:37:28;23.1;62.9
78884;SHT31;68262;51.968;5.672;2023-10-13T13:39:58;23.1;63.2
78884;SHT31;68262;51.968;5.672;2023-10-13T13:42:33;23.1;63.8
78884;SHT31;68262;51.968;5.672;2023-10-13T13:45:06;23.0;63.5
78884;SHT31;68262;51.968;5.672;2023-10-13T13:47:36;22.9;65.0
78884;SHT31;68262;51.968;5.672;2023-10-13T13:50:06;22.9;64.9
78884;SHT31;68262;51.968;5.672;2023-10-13T13:52:41;22.8;64.2
78884;SHT31;68262;51.968;5.672;2023-10-13T13:55:13;22.8;65.1
78884;SHT31;68262;51.968;5.672;2023-10-13T13:57:44;22.8;65.0
78884;SHT31;68262;51.968;5.672;2023-10-13T14:00:15;22.7;65.2
78884;SHT31;68262;51.968;5.672;2023-10-13T14:02:50;22.7;65.8
78884;SHT31;68262;51.968;5.672;2023-10-13T14:05:20;22.6;66.5
78884;SHT31;68262;51.968;5.672;2023-10-13T14:07:50;22.6;66.2
78884;SHT31;68262;51.968;5.672;2023-10-13T14:10:20;22.6;67.9
78884;SHT31;68262;51.968;5.672;2023-10-13T14:13:03;22.5;66.4
78884;SHT31;68262;51.968;5.672;2023-10-13T14:15:41;22.5;68.3
78884;SHT31;68262;51.968;5.672;2023-10-13T14:18:11;22.4;67.6
78884;SHT31;68262;51.968;5.672;2023-10-13T14:20:42;22.4;67.4
78884;SHT31;68262;51.968;5.672;2023-10-13T14:23:13;22.3;68.4
78884;SHT31;68262;51.968;5.672;2023-10-13T14:25:45;22.3;69.0
78884;SHT31;68262;51.968;5.672;2023-10-13T14:28:14;22.3;68.8
78884;SHT31;68262;51.968;5.672;2023-10-13T14:30:45;22.2;69.7
78884;SHT31;68262;51.968;5.672;2023-10-13T14:33:14;22.2;69.0
78884;SHT31;68262;51.968;5.672;2023-10-13T14:35:46;22.1;69.4
78884;SHT31;68262;51.968;5.672;2023-10-13T14:38:15;22.1;69.8
78884;SHT31;68262;51.968;5.672;2023-10-13T14:40:44;22.1;69.9
78884;SHT31;68262;51.968;5.672;2023-10-13T14:43:15;22.0;70.3
78884;SHT31;68262;51.968;5.672;2023-10-13T14:45:47;22.0;70.8
78884;SHT31;68262;51.968;5.672;2023-10-13T14:48:17;22.0;71.1
78884;SHT31;68262;51.968;5.672;2023-10-13T14:50:46;21.9;71.3
78884;SHT31;68262;51.968;5.672;2023-10-13T14:53:16;21.9;71.4
78884;SHT31;68262;51.968;5.672;2023-10-13T14:55:49;21.8;72.0
78884;SHT31;68262;51.968;5.672;2023-10-13T14:58:19;21.8;71.3
78884;SHT31;68262;51.968;5.672;2023-10-13T15:00:53;21.8;71.7
78884;SHT31;68262;51.968;5.672;2023-10-13T15:03:26;21.8;72.0
78884;SHT31;68262;51.968;5.672;2023-10-13T15:05:56;21.7;72.6
78884;SHT31;68262;51.968;5.672;2023-10-13T15:08:25;21.7;72.2
78884;SHT31;68262;51.968;5.672;2023-10-13T15:10:55;21.7;71.8
78884;SHT31;68262;51.968;5.672;2023-10-13T15:13:26;21.7;72.7
78884;SHT31;68262;51.968;5.672;2023-10-13T15:15:56;21.6;72.8
78884;SHT31;68262;51.968;5.672;2023-10-13T15:18:25;21.6;73.3
78884;SHT31;68262;51.968;5.672;2023-10-13T15:20:54;21.6;73.0
78884;SHT31;68262;51.968;5.672;2023-10-13T15:23:24;21.6;73.1
78884;SHT31;68262;51.968;5.672;2023-10-13T15:25:54;21.6;73.0
78884;SHT31;68262;51.968;5.672;2023-10-13T15:28:25;21.6;73.4
78884;SHT31;68262;51.968;5.672;2023-10-13T15:30:58;21.5;73.6
78884;SHT31;68262;51.968;5.672;2023-10-13T15:33:32;21.5;73.8
78884;SHT31;68262;51.968;5.672;2023-10-13T15:36:02;21.5;73.8
78884;SHT31;68262;51.968;5.672;2023-10-13T15:38:31;21.5;73.8
78884;SHT31;68262;51.968;5.672;2023-10-13T15:41:01;21.5;74.3
78884;SHT31;68262;51.968;5.672;2023-10-13T15:43:31;21.4;74.6
78884;SHT31;68262;51.968;5.672;2023-10-13T15:46:01;21.4;74.1
78884;SHT31;68262;51.968;5.672;2023-10-13T15:48:35;21.4;73.8
78884;SHT31;68262;51.968;5.672;2023-10-13T15:51:06;21.4;74.2
78884;SHT31;68262;51.968;5.672;2023-10-13T15:53:40;21.4;73.9
78884;SHT31;68262;51.968;5.672;2023-10-13T15:56:12;21.4;74.8
78884;SHT31;68262;51.968;5.672;2023-10-13T15:58:41;21.5;74.7
78884;SHT31;68262;51.968;5.672;2023-10-13T16:01:13;21.6;73.6
78884;SHT31;68262;51.968;5.672;2023-10-13T16:03:43;21.6;73.7
78884;SHT31;68262;51.968;5.672;2023-10-13T16:06:18;21.6;73.1
78884;SHT31;68262;51.968;5.672;2023-10-13T16:08:52;21.6;73.3
78884;SHT31;68262;51.968;5.672;2023-10-13T16:11:23;21.7;73.0
78884;SHT31;68262;51.968;5.672;2023-10-13T16:13:53;21.7;72.4
78884;SHT31;68262;51.968;5.672;2023-10-13T16:16:23;21.7;72.4
78884;SHT31;68262;51.968;5.672;2023-10-13T16:18:53;21.7;71.9
78884;SHT31;68262;51.968;5.672;2023-10-13T16:21:23;21.7;71.7
78884;SHT31;68262;51.968;5.672;2023-10-13T16:23:53;21.7;71.2
78884;SHT31;68262;51.968;5.672;2023-10-13T16:26:22;21.7;70.4
78884;SHT31;68262;51.968;5.672;2023-10-13T16:28:52;21.7;70.0
78884;SHT31;68262;51.968;5.672;2023-10-13T16:31:25;21.7;70.0
78884;SHT31;68262;51.968;5.672;2023-10-13T16:33:56;21.7;69.6
78884;SHT31;68262;51.968;5.672;2023-10-13T16:36:26;21.7;70.2
78884;SHT31;68262;51.968;5.672;2023-10-13T16:38:59;21.7;69.2
78884;SHT31;68262;51.968;5.672;2023-10-13T16:41:30;21.7;68.9
78884;SHT31;68262;51.968;5.672;2023-10-13T16:44:00;21.7;68.8
78884;SHT31;68262;51.968;5.672;2023-10-13T16:46:35;21.7;68.8
78884;SHT31;68262;51.968;5.672;2023-10-13T16:49:04;21.7;68.9
78884;SHT31;68262;51.968;5.672;2023-10-13T16:51:35;21.7;69.2
78884;SHT31;68262;51.968;5.672;2023-10-13T16:54:05;21.7;69.0
78884;SHT31;68262;51.968;5.672;2023-10-13T16:56:37;21.7;68.7
78884;SHT31;68262;51.968;5.672;2023-10-13T16:59:06;21.7;69.2
78884;SHT31;68262;51.968;5.672;2023-10-13T17:01:39;21.7;68.6
78884;SHT31;68262;51.968;5.672;2023-10-13T17:04:10;21.7;68.6
78884;SHT31;68262;51.968;5.672;2023-10-13T17:06:43;21.7;68.2
78884;SHT31;68262;51.968;5.672;2023-10-13T17:09:15;21.7;68.0
78884;SHT31;68262;51.968;5.672;2023-10-13T17:11:45;21.7;68.6
78884;SHT31;68262;51.968;5.672;2023-10-13T17:14:15;21.8;69.0
78884;SHT31;68262;51.968;5.672;2023-10-13T17:16:45;21.8;71.2
78884;SHT31;68262;51.968;5.672;2023-10-13T17:19:15;21.7;71.5
78884;SHT31;68262;51.968;5.672;2023-10-13T17:21:47;21.7;71.9
78884;SHT31;68262;51.968;5.672;2023-10-13T17:24:18;21.6;73.3
78884;SHT31;68262;51.968;5.672;2023-10-13T17:26:47;21.5;73.6
78884;SHT31;68262;51.968;5.672;2023-10-13T17:29:17;21.4;73.9
78884;SHT31;68262;51.968;5.672;2023-10-13T17:31:50;21.2;74.5
78884;SHT31;68262;51.968;5.672;2023-10-13T17:34:19;21.1;75.0
78884;SHT31;68262;51.968;5.672;2023-10-13T17:36:49;21.0;75.6
78884;SHT31;68262;51.968;5.672;2023-10-13T17:39:19;20.9;76.4
78884;SHT31;68262;51.968;5.672;2023-10-13T17:41:49;20.8;77.0
78884;SHT31;68262;51.968;5.672;2023-10-13T17:44:21;20.7;77.4
78884;SHT31;68262;51.968;5.672;2023-10-13T17:46:51;20.6;77.9
78884;SHT31;68262;51.968;5.672;2023-10-13T17:49:20;20.5;77.8
78884;SHT31;68262;51.968;5.672;2023-10-13T17:51:52;20.4;78.2
78884;SHT31;68262;51.968;5.672;2023-10-13T17:54:21;20.4;78.6
78884;SHT31;68262;51.968;5.672;2023-10-13T17:56:50;20.3;79.3
78884;SHT31;68262;51.968;5.672;2023-10-13T17:59:20;20.3;79.7
78884;SHT31;68262;51.968;5.672;2023-10-13T18:01:49;20.3;79.4
78884;SHT31;68262;51.968;5.672;2023-10-13T18:04:19;20.3;79.7
78884;SHT31;68262;51.968;5.672;2023-10-13T18:06:48;20.3;79.9
78884;SHT31;68262;51.968;5.672;2023-10-13T18:09:20;20.2;80.5
78884;SHT31;68262;51.968;5.672;2023-10-13T18:11:50;20.1;80.8
78884;SHT31;68262;51.968;5.672;2023-10-13T18:14:21;20.1;81.2
78884;SHT31;68262;51.968;5.672;2023-10-13T18:16:52;20.0;82.2
78884;SHT31;68262;51.968;5.672;2023-10-13T18:19:24;20.0;82.6
78884;SHT31;68262;51.968;5.672;2023-10-13T18:21:55;19.9;82.8
78884;SHT31;68262;51.968;5.672;2023-10-13T18:24:27;19.9;83.2
78884;SHT31;68262;51.968;5.672;2023-10-13T18:26:57;19.9;83.5
78884;SHT31;68262;51.968;5.672;2023-10-13T18:29:27;19.8;83.0
78884;SHT31;68262;51.968;5.672;2023-10-13T18:31:57;19.8;83.2
78884;SHT31;68262;51.968;5.672;2023-10-13T18:34:27;19.8;83.2
78884;SHT31;68262;51.968;5.672;2023-10-13T18:36:56;19.7;83.5
78884;SHT31;68262;51.968;5.672;2023-10-13T18:39:27;19.7;83.7
78884;SHT31;68262;51.968;5.672;2023-10-13T18:42:03;19.6;84.0
78884;SHT31;68262;51.968;5.672;2023-10-13T18:44:33;19.6;84.3
78884;SHT31;68262;51.968;5.672;2023-10-13T18:47:02;19.6;84.6
78884;SHT31;68262;51.968;5.672;2023-10-13T18:49:32;19.6;84.6
78884;SHT31;68262;51.968;5.672;2023-10-13T18:52:05;19.6;84.6
78884;SHT31;68262;51.968;5.672;2023-10-13T18:54:37;19.6;85.0
78884;SHT31;68262;51.968;5.672;2023-10-13T18:57:09;19.6;84.9
78884;SHT31;68262;51.968;5.672;2023-10-13T18:59:42;19.6;84.7
78884;SHT31;68262;51.968;5.672;2023-10-13T19:02:12;19.6;84.5
78884;SHT31;68262;51.968;5.672;2023-10-13T19:04:41;19.6;84.2
78884;SHT31;68262;51.968;5.672;2023-10-13T19:07:11;19.6;84.8
78884;SHT31;68262;51.968;5.672;2023-10-13T19:09:41;19.6;84.7
78884;SHT31;68262;51.968;5.672;2023-10-13T19:12:11;19.5;84.7
78884;SHT31;68262;51.968;5.672;2023-10-13T19:14:41;19.5;85.2
78884;SHT31;68262;51.968;5.672;2023-10-13T19:17:10;19.5;85.1
78884;SHT31;68262;51.968;5.672;2023-10-13T19:19:43;19.5;85.2
78884;SHT31;68262;51.968;5.672;2023-10-13T19:22:12;19.5;85.3
78884;SHT31;68262;51.968;5.672;2023-10-13T19:24:42;19.5;85.2
78884;SHT31;68262;51.968;5.672;2023-10-13T19:27:12;19.5;85.1
78884;SHT31;68262;51.968;5.672;2023-10-13T19:29:42;19.5;85.0
78884;SHT31;68262;51.968;5.672;2023-10-13T19:32:12;19.5;84.8
78884;SHT31;68262;51.968;5.672;2023-10-13T19:34:41;19.5;84.9
78884;SHT31;68262;51.968;5.672;2023-10-13T19:37:11;19.5;84.6
78884;SHT31;68262;51.968;5.672;2023-10-13T19:39:40;19.5;84.7
78884;SHT31;68262;51.968;5.672;2023-10-13T19:42:10;19.5;84.6
78884;SHT31;68262;51.968;5.672;2023-10-13T19:44:41;19.5;84.2
78884;SHT31;68262;51.968;5.672;2023-10-13T19:47:13;19.5;84.0
78884;SHT31;68262;51.968;5.672;2023-10-13T19:49:43;19.5;84.0
78884;SHT31;68262;51.968;5.672;2023-10-13T19:52:12;19.5;83.8
78884;SHT31;68262;51.968;5.672;2023-10-13T19:54:44;19.5;83.5
78884;SHT31;68262;51.968;5.672;2023-10-13T19:57:14;19.5;83.6
78884;SHT31;68262;51.968;5.672;2023-10-13T19:59:43;19.6;83.4
78884;SHT31;68262;51.968;5.672;2023-10-13T20:02:14;19.7;83.7
78884;SHT31;68262;51.968;5.672;2023-10-13T20:04:44;19.8;82.5
78884;SHT31;68262;51.968;5.672;2023-10-13T20:07:14;19.9;82.0
78884;SHT31;68262;51.968;5.672;2023-10-13T20:09:43;19.9;81.8
78884;SHT31;68262;51.968;5.672;2023-10-13T20:12:13;20.0;81.4
78884;SHT31;68262;51.968;5.672;2023-10-13T20:14:43;20.0;81.2
78884;SHT31;68262;51.968;5.672;2023-10-13T20:17:13;20.0;81.3
78884;SHT31;68262;51.968;5.672;2023-10-13T20:19:42;20.0;81.3
78884;SHT31;68262;51.968;5.672;2023-10-13T20:22:15;20.0;80.9
78884;SHT31;68262;51.968;5.672;2023-10-13T20:24:44;20.0;81.0
78884;SHT31;68262;51.968;5.672;2023-10-13T20:27:14;20.0;80.8
78884;SHT31;68262;51.968;5.672;2023-10-13T20:29:46;20.0;81.1
78884;SHT31;68262;51.968;5.672;2023-10-13T20:32:18;20.0;81.1
78884;SHT31;68262;51.968;5.672;2023-10-13T20:34:48;20.0;80.8
78884;SHT31;68262;51.968;5.672;2023-10-13T20:37:21;20.0;80.7
78884;SHT31;68262;51.968;5.672;2023-10-13T20:39:50;20.0;81.2
78884;SHT31;68262;51.968;5.672;2023-10-13T20:42:21;20.0;80.7
78884;SHT31;68262;51.968;5.672;2023-10-13T20:44:51;20.0;80.4
78884;SHT31;68262;51.968;5.672;2023-10-13T20:47:20;20.0;80.8
78884;SHT31;68262;51.968;5.672;2023-10-13T20:49:50;20.1;80.9
78884;SHT31;68262;51.968;5.672;2023-10-13T20:52:20;20.1;80.5
78884;SHT31;68262;51.968;5.672;2023-10-13T20:54:52;20.1;76.0
78884;SHT31;68262;51.968;5.672;2023-10-13T20:57:23;20.0;76.7
78884;SHT31;68262;51.968;5.672;2023-10-13T20:59:54;20.0;75.8
78884;SHT31;68262;51.968;5.672;2023-10-13T21:02:24;19.9;74.8
78884;SHT31;68262;51.968;5.672;2023-10-13T21:04:54;19.9;74.8
78884;SHT31;68262;51.968;5.672;2023-10-13T21:07:23;19.8;74.9
78884;SHT31;68262;51.968;5.672;2023-10-13T21:09:54;19.7;75.6
78884;SHT31;68262;51.968;5.672;2023-10-13T21:12:23;19.6;76.7
78884;SHT31;68262;51.968;5.672;2023-10-13T21:14:53;19.5;77.1
78884;SHT31;68262;51.968;5.672;2023-10-13T21:17:23;19.4;78.2
78884;SHT31;68262;51.968;5.672;2023-10-13T21:19:53;19.3;78.7
78884;SHT31;68262;51.968;5.672;2023-10-13T21:22:23;19.3;79.1
78884;SHT31;68262;51.968;5.672;2023-10-13T21:24:54;19.2;79.6
78884;SHT31;68262;51.968;5.672;2023-10-13T21:27:26;19.2;80.1
78884;SHT31;68262;51.968;5.672;2023-10-13T21:29:59;19.1;80.8
78884;SHT31;68262;51.968;5.672;2023-10-13T21:32:28;19.1;81.6
78884;SHT31;68262;51.968;5.672;2023-10-13T21:34:58;19.1;82.2
78884;SHT31;68262;51.968;5.672;2023-10-13T21:37:27;19.1;81.9
78884;SHT31;68262;51.968;5.672;2023-10-13T21:40:00;19.1;81.3
78884;SHT31;68262;51.968;5.672;2023-10-13T21:42:30;19.1;81.5
78884;SHT31;68262;51.968;5.672;2023-10-13T21:45:00;19.1;81.4
78884;SHT31;68262;51.968;5.672;2023-10-13T21:47:29;19.1;81.5
78884;SHT31;68262;51.968;5.672;2023-10-13T21:50:01;19.1;80.8
78884;SHT31;68262;51.968;5.672;2023-10-13T21:52:31;19.1;80.4
78884;SHT31;68262;51.968;5.672;2023-10-13T21:55:00;19.1;80.2
78884;SHT31;68262;51.968;5.672;2023-10-13T21:57:30;19.1;79.4
78884;SHT31;68262;51.968;5.672;2023-10-13T21:59:59;19.1;80.0
78884;SHT31;68262;51.968;5.672;2023-10-13T22:02:34;19.1;79.9
78884;SHT31;68262;51.968;5.672;2023-10-13T22:05:07;19.1;80.4
78884;SHT31;68262;51.968;5.672;2023-10-13T22:07:38;19.2;80.7
78884;SHT31;68262;51.968;5.672;2023-10-13T22:10:14;19.2;80.3
78884;SHT31;68262;51.968;5.672;2023-10-13T22:12:47;19.2;79.7
78884;SHT31;68262;51.968;5.672;2023-10-13T22:15:17;19.2;79.3
78884;SHT31;68262;51.968;5.672;2023-10-13T22:17:49;19.2;79.4
78884;SHT31;68262;51.968;5.672;2023-10-13T22:20:19;19.2;79.6
78884;SHT31;68262;51.968;5.672;2023-10-13T22:22:51;19.2;79.8
78884;SHT31;68262;51.968;5.672;2023-10-13T22:25:21;19.2;79.7
78884;SHT31;68262;51.968;5.672;2023-10-13T22:27:52;19.2;80.3
78884;SHT31;68262;51.968;5.672;2023-10-13T22:30:22;19.2;80.5
78884;SHT31;68262;51.968;5.672;2023-10-13T22:32:52;19.2;80.8
78884;SHT31;68262;51.968;5.672;2023-10-13T22:35:22;19.2;80.8
78884;SHT31;68262;51.968;5.672;2023-10-13T22:37:53;19.2;80.9
78884;SHT31;68262;51.968;5.672;2023-10-13T22:40:23;19.1;79.4
78884;SHT31;68262;51.968;5.672;2023-10-13T22:43:00;19.1;76.0
78884;SHT31;68262;51.968;5.672;2023-10-13T22:45:29;19.1;73.7
78884;SHT31;68262;51.968;5.672;2023-10-13T22:47:59;19.0;73.0
78884;SHT31;68262;51.968;5.672;2023-10-13T22:50:28;18.9;72.3
78884;SHT31;68262;51.968;5.672;2023-10-13T22:52:58;18.8;72.7
78884;SHT31;68262;51.968;5.672;2023-10-13T22:55:28;18.7;73.2
78884;SHT31;68262;51.968;5.672;2023-10-13T22:58:03;18.6;73.3
78884;SHT31;68262;51.968;5.672;2023-10-13T23:00:36;18.5;73.7
78884;SHT31;68262;51.968;5.672;2023-10-13T23:03:16;18.4;75.3
78884;SHT31;68262;51.968;5.672;2023-10-13T23:05:48;18.3;74.9
78884;SHT31;68262;51.968;5.672;2023-10-13T23:08:23;18.3;74.9
78884;SHT31;68262;51.968;5.672;2023-10-13T23:10:59;18.2;75.9
78884;SHT31;68262;51.968;5.672;2023-10-13T23:13:33;18.1;76.6
78884;SHT31;68262;51.968;5.672;2023-10-13T23:16:05;18.1;77.3
78884;SHT31;68262;51.968;5.672;2023-10-13T23:18:35;18.1;77.9
78884;SHT31;68262;51.968;5.672;2023-10-13T23:21:04;18.1;77.9
78884;SHT31;68262;51.968;5.672;2023-10-13T23:23:38;18.0;77.2
78884;SHT31;68262;51.968;5.672;2023-10-13T23:26:08;18.0;77.4
78884;SHT31;68262;51.968;5.672;2023-10-13T23:28:42;18.0;78.3
78884;SHT31;68262;51.968;5.672;2023-10-13T23:31:14;18.0;77.2
78884;SHT31;68262;51.968;5.672;2023-10-13T23:33:44;18.0;76.8
78884;SHT31;68262;51.968;5.672;2023-10-13T23:36:15;18.0;77.0
78884;SHT31;68262;51.968;5.672;2023-10-13T23:38:46;18.0;77.5
78884;SHT31;68262;51.968;5.672;2023-10-13T23:41:23;18.0;77.4
78884;SHT31;68262;51.968;5.672;2023-10-13T23:43:55;18.0;77.7
78884;SHT31;68262;51.968;5.672;2023-10-13T23:46:26;18.0;78.2
78884;SHT31;68262;51.968;5.672;2023-10-13T23:49:02;18.0;77.8
78884;SHT31;68262;51.968;5.672;2023-10-13T23:51:33;18.0;77.9
78884;SHT31;68262;51.968;5.672;2023-10-13T23:54:03;18.0;78.2
78884;SHT31;68262;51.968;5.672;2023-10-13T23:56:44;18.0;77.9
78884;SHT31;68262;51.968;5.672;2023-10-13T23:59:15;18.0;78.5
